Friday, October 19, 2018, 7:28 AM EDT
Back to Local

KNYC, New York City Central Park

Location: New York, NY, United States Lat: 40.783
Local Time: 7:28 AM EDT (11:28 GMT) Lon: -73.967
Time Zone: US/Eastern Elev: 157 ft

Show me the last for .
Show Coded

Time T Td Feel RH Dir Speed Gust Alt SLP Vis Weather Sky Remarks
2018-10-19 06:51 44 33 - 65 - - - 30.33 30.31 10 CLR None
2018-10-19 05:51 44 32 - 62 - - - 30.33 30.30 10 CLR None
2018-10-19 04:51 44 30 - 57 - - - 30.33 30.30 10 CLR None
2018-10-19 03:51 43 29 - 57 - - - 30.34 30.31 10 CLR None
2018-10-19 02:51 43 30 - 59 - - - 30.35 30.32 10 CLR None
2018-10-19 01:51 44 31 - 59 - - - 30.35 30.32 10 CLR 6-hr Min Temp (2am): 43.0°F
6-hr Max Temp (2am): 48.0°F
2018-10-19 00:51 43 29 - 57 - - - 30.36 30.33 10 CLR 24-hr Min Temp (1am): 42.1°F
24-hr Max Temp (1am): 50.0°F
2018-10-18 23:51 43 30 - 59 - - - 30.37 30.34 10 CLR None
2018-10-18 22:51 44 28 - 53 - - - 30.38 30.35 10 CLR None
2018-10-18 21:51 45 28 - 51 - - - 30.38 30.35 10 CLR None
2018-10-18 20:51 47 25 - 41 - - - 30.37 30.34 10 CLR None
2018-10-18 19:51 47 24 - 40 - - - 30.36 30.34 10 CLR 6-hr Min Temp (8pm): 46.9°F
6-hr Max Temp (8pm): 50.0°F
2018-10-18 18:51 48 24 - 38 - - - 30.36 30.34 10 CLR None
2018-10-18 17:51 49 23 - 35 - - - 30.34 30.32 10 CLR None
2018-10-18 16:51 50 20 - 30 - - - 30.33 30.31 10 CLR None
2018-10-18 15:51 50 21 - 31 - - - 30.33 30.30 10 CLR None
2018-10-18 14:51 49 20 - 31 - - - 30.34 30.31 10 CLR None
2018-10-18 13:51 49 19 - 30 - - - 30.35 30.32 10 CLR 6-hr Min Temp (2pm): 42.1°F
6-hr Max Temp (2pm): 48.9°F
2018-10-18 12:51 48 21 - 34 - - - 30.36 30.33 10 CLR None
2018-10-18 11:51 46 22 - 38 - - - 30.37 30.34 10 CLR None
2018-10-18 10:51 44 22 - 41 - - - 30.37 30.34 10 SCT050 None
2018-10-18 09:51 43 23 - 44 - - - 30.36 30.34 10 FEW050 None
2018-10-18 08:51 42 24 - 48 - - - 30.36 30.33 10 CLR None
2018-10-18 07:51 42 25 - 50 - - - 30.33 30.30 10 SCT070 6-hr Min Temp (8am): 42.1°F
6-hr Max Temp (8am): 46.0°F

Support USWX by starting your Amazon purchase here.